Time;durP1;ratioP1;P1;durP2;ratioP2;P2;SDS_P1;SDS_P2;PMS_P1;PMS_P2;Temp;Humidity;BMP_temperature;BMP_pressure;BME280_temperature;BME280_humidity;BME280_pressure;Samples;Min_cycle;Max_cycle;Signal;HPM_P1;HPM_P2
2023/03/13 00:01:41;;;;;;;11.80;2.17;;;;;;;;;;5113200;28;20387;-74
2023/03/13 00:04:07;;;;;;;8.57;2.03;;;;;;;;;;5110296;28;20055;-74
2023/03/13 00:06:35;;;;;;;10.07;1.88;;;;;;;;;;5112108;28;20042;-74
2023/03/13 00:09:02;;;;;;;16.77;3.22;;;;;;;;;;5112153;28;20034;-74
2023/03/13 00:11:28;;;;;;;11.57;3.30;;;;;;;;;;5110331;28;20073;-74
2023/03/13 00:13:58;;;;;;;8.85;1.52;;;;;;;;;;5098681;28;20088;-74
2023/03/13 00:16:24;;;;;;;9.75;1.73;;;;;;;;;;5115763;28;20027;-74
2023/03/13 00:18:51;;;;;;;11.55;2.47;;;;;;;;;;5117403;28;20036;-74
2023/03/13 00:21:19;;;;;;;7.32;1.67;;;;;;;;;;5116395;28;20096;-74
2023/03/13 00:23:45;;;;;;;8.55;1.83;;;;;;;;;;5117437;28;20027;-74
2023/03/13 00:26:13;;;;;;;10.18;1.80;;;;;;;;;;5117382;28;20040;-74
2023/03/13 00:28:40;;;;;;;13.60;2.38;;;;;;;;;;5116074;28;20040;-74
2023/03/13 00:31:11;;;;;;;6.00;1.23;;;;;;;;;;5117376;28;20031;-74
2023/03/13 00:33:38;;;;;;;9.50;1.92;;;;;;;;;;5115909;28;20027;-74
2023/03/13 00:36:09;;;;;;;14.95;2.13;;;;;;;;;;5116122;28;20093;-74
2023/03/13 00:38:35;;;;;;;7.25;1.80;;;;;;;;;;5115857;28;20061;-74
2023/03/13 00:41:24;;;;;;;8.07;1.58;;;;;;;;;;5116659;28;20052;-74
2023/03/13 00:43:49;;;;;;;9.48;1.58;;;;;;;;;;5103334;27;20101;-74
2023/03/13 00:46:17;;;;;;;6.45;2.00;;;;;;;;;;5116546;28;20036;-74
2023/03/13 00:48:43;;;;;;;13.30;1.92;;;;;;;;;;5113713;28;20032;-74
2023/03/13 00:51:09;;;;;;;12.20;2.20;;;;;;;;;;5115672;28;20035;-74
2023/03/13 00:53:35;;;;;;;11.50;2.33;;;;;;;;;;5113392;27;20517;-74
2023/03/13 00:56:06;;;;;;;12.13;2.20;;;;;;;;;;5115772;28;20063;-74
2023/03/13 00:58:34;;;;;;;6.63;1.70;;;;;;;;;;5112642;28;20031;-74
2023/03/13 01:01:11;;;;;;;6.93;1.42;;;;;;;;;;5116740;28;20490;-74
2023/03/13 01:03:37;;;;;;;10.98;1.80;;;;;;;;;;5102770;28;20093;-74
2023/03/13 01:06:04;;;;;;;9.18;1.85;;;;;;;;;;5115000;28;20035;-74
2023/03/13 01:08:30;;;;;;;11.48;2.15;;;;;;;;;;5115020;28;20038;-74
2023/03/13 01:11:09;;;;;;;7.18;1.60;;;;;;;;;;5116603;28;20035;-74
2023/03/13 01:13:36;;;;;;;9.55;1.80;;;;;;;;;;5105651;28;20040;-74
2023/03/13 01:16:07;;;;;;;7.80;1.48;;;;;;;;;;5113493;28;20074;-74
2023/03/13 01:18:34;;;;;;;7.32;1.98;;;;;;;;;;5115118;28;20051;-74
2023/03/13 01:21:00;;;;;;;5.85;1.58;;;;;;;;;;5107831;28;20115;-74
2023/03/13 01:23:25;;;;;;;9.90;1.80;;;;;;;;;;5113143;28;20086;-74
2023/03/13 01:25:51;;;;;;;4.90;1.38;;;;;;;;;;5115541;28;20534;-74
2023/03/13 01:28:16;;;;;;;12.35;1.88;;;;;;;;;;5116159;28;20031;-75
2023/03/13 01:30:42;;;;;;;3.83;1.48;;;;;;;;;;5116186;28;20080;-74
2023/03/13 01:33:07;;;;;;;10.23;1.45;;;;;;;;;;5116068;28;20076;-74
2023/03/13 01:35:32;;;;;;;5.32;1.70;;;;;;;;;;5115294;28;20116;-74
2023/03/13 01:37:58;;;;;;;6.25;1.67;;;;;;;;;;5112133;28;20216;-74
2023/03/13 01:40:23;;;;;;;8.70;1.83;;;;;;;;;;5116018;28;20039;-74
2023/03/13 01:42:54;;;;;;;3.67;1.17;;;;;;;;;;5115921;28;20114;-74
2023/03/13 01:46:16;;;;;;;9.55;1.70;;;;;;;;;;5116061;28;20039;-74
2023/03/13 01:48:59;;;;;;;9.20;1.48;;;;;;;;;;5096057;28;20407;-74
2023/03/13 01:51:38;;;;;;;6.40;1.05;;;;;;;;;;5115657;28;20043;-74
2023/03/13 01:54:09;;;;;;;6.97;1.33;;;;;;;;;;5114368;28;20047;-74
2023/03/13 01:57:02;;;;;;;5.85;1.40;;;;;;;;;;5114070;28;20495;-74
2023/03/13 01:59:36;;;;;;;4.63;1.08;;;;;;;;;;5114380;28;20031;-74
2023/03/13 02:02:02;;;;;;;4.07;0.80;;;;;;;;;;5114316;28;20047;-74
2023/03/13 02:04:31;;;;;;;2.05;0.95;;;;;;;;;;5113327;27;20027;-74
2023/03/13 02:07:00;;;;;;;1.35;0.63;;;;;;;;;;5113378;28;20475;-74
2023/03/13 02:09:28;;;;;;;6.85;0.82;;;;;;;;;;5114028;28;20031;-74
2023/03/13 02:12:01;;;;;;;4.35;0.90;;;;;;;;;;5114510;28;20039;-74
2023/03/13 02:14:28;;;;;;;3.22;0.80;;;;;;;;;;5096697;28;20040;-74
2023/03/13 02:16:54;;;;;;;2.78;0.70;;;;;;;;;;5111921;28;20043;-74
2023/03/13 02:19:47;;;;;;;2.38;0.63;;;;;;;;;;5115435;28;20039;-74
2023/03/13 02:22:33;;;;;;;7.07;0.77;;;;;;;;;;5093800;28;20123;-74
2023/03/13 02:25:17;;;;;;;3.47;0.75;;;;;;;;;;5098841;28;20145;-74
2023/03/13 02:27:42;;;;;;;1.15;0.38;;;;;;;;;;5094859;28;20071;-74
2023/03/13 02:30:10;;;;;;;1.08;0.40;;;;;;;;;;5113742;28;20063;-74
2023/03/13 02:32:35;;;;;;;2.45;0.65;;;;;;;;;;5113731;28;20031;-74
2023/03/13 02:35:05;;;;;;;1.35;0.52;;;;;;;;;;5113652;28;20126;-74
2023/03/13 02:37:32;;;;;;;2.05;0.52;;;;;;;;;;5112389;28;20494;-74
2023/03/13 02:40:00;;;;;;;7.80;0.70;;;;;;;;;;5114964;28;20027;-74
2023/03/13 02:42:26;;;;;;;2.03;0.63;;;;;;;;;;5113476;28;20388;-74
2023/03/13 02:44:52;;;;;;;1.17;0.45;;;;;;;;;;5114912;28;20043;-74
2023/03/13 02:47:23;;;;;;;2.80;0.43;;;;;;;;;;5107544;28;20039;-74
2023/03/13 02:49:49;;;;;;;2.78;0.75;;;;;;;;;;5086985;28;20372;-74
2023/03/13 02:52:27;;;;;;;1.55;0.57;;;;;;;;;;5114443;28;20047;-74
2023/03/13 02:55:02;;;;;;;2.00;0.77;;;;;;;;;;5112691;28;20039;-74
2023/03/13 02:57:28;;;;;;;3.03;0.75;;;;;;;;;;5107790;28;20074;-74
2023/03/13 02:59:53;;;;;;;2.28;0.68;;;;;;;;;;5113072;28;20478;-74
2023/03/13 03:02:19;;;;;;;1.95;0.60;;;;;;;;;;5114091;28;20050;-74
2023/03/13 03:04:44;;;;;;;1.75;0.47;;;;;;;;;;5114457;28;20030;-74
2023/03/13 03:07:10;;;;;;;1.48;0.65;;;;;;;;;;5114167;28;20465;-74
2023/03/13 03:09:35;;;;;;;2.15;0.77;;;;;;;;;;5114377;28;20036;-74
2023/03/13 03:12:01;;;;;;;1.98;0.77;;;;;;;;;;5114203;28;20023;-74
2023/03/13 03:14:26;;;;;;;2.67;0.68;;;;;;;;;;5114232;28;20084;-74
2023/03/13 03:16:52;;;;;;;9.05;1.35;;;;;;;;;;5112854;28;20036;-74
2023/03/13 03:19:17;;;;;;;1.70;0.55;;;;;;;;;;5113027;28;20421;-74
2023/03/13 03:21:43;;;;;;;2.35;0.80;;;;;;;;;;5114063;28;20040;-74
2023/03/13 03:24:08;;;;;;;4.05;0.88;;;;;;;;;;5114354;28;20043;-74
2023/03/13 03:26:34;;;;;;;4.25;0.98;;;;;;;;;;5113915;28;20380;-74
2023/03/13 03:28:59;;;;;;;5.63;0.90;;;;;;;;;;5113759;28;20035;-74
2023/03/13 03:31:25;;;;;;;3.63;0.80;;;;;;;;;;5112847;28;20460;-74
2023/03/13 03:33:50;;;;;;;9.18;1.10;;;;;;;;;;5113701;28;20115;-74
2023/03/13 03:36:21;;;;;;;6.80;0.90;;;;;;;;;;5113921;28;20063;-74
2023/03/13 03:38:46;;;;;;;5.72;0.98;;;;;;;;;;5112289;28;20043;-74
2023/03/13 03:41:13;;;;;;;5.82;1.00;;;;;;;;;;5112724;28;20036;-74
2023/03/13 03:43:39;;;;;;;2.67;0.70;;;;;;;;;;5113087;28;20035;-74
2023/03/13 03:46:05;;;;;;;3.28;0.65;;;;;;;;;;5113686;28;20169;-74
2023/03/13 03:48:30;;;;;;;3.78;1.17;;;;;;;;;;5113178;28;20468;-74
2023/03/13 03:50:55;;;;;;;9.00;1.05;;;;;;;;;;5113586;28;20050;-74
2023/03/13 03:53:21;;;;;;;3.58;0.93;;;;;;;;;;5111929;28;20079;-74
2023/03/13 03:55:47;;;;;;;5.70;1.10;;;;;;;;;;5112455;28;20035;-74
2023/03/13 03:58:12;;;;;;;9.57;1.15;;;;;;;;;;5113287;28;20051;-74
2023/03/13 04:00:37;;;;;;;9.27;1.08;;;;;;;;;;5113326;28;20071;-74
2023/03/13 04:03:03;;;;;;;6.35;1.40;;;;;;;;;;5113312;28;20031;-74
2023/03/13 04:05:29;;;;;;;10.02;1.13;;;;;;;;;;5113681;28;20040;-74
2023/03/13 04:07:54;;;;;;;7.28;1.48;;;;;;;;;;5113384;28;20070;-74
2023/03/13 04:10:20;;;;;;;8.32;1.77;;;;;;;;;;5113507;28;20032;-74
2023/03/13 04:12:45;;;;;;;8.45;1.30;;;;;;;;;;5113406;28;20040;-74
2023/03/13 04:15:11;;;;;;;8.00;1.35;;;;;;;;;;5113375;28;20044;-74
2023/03/13 04:17:36;;;;;;;11.60;2.25;;;;;;;;;;5113034;28;20051;-74
2023/03/13 04:20:03;;;;;;;9.85;1.85;;;;;;;;;;5112768;28;20036;-74
2023/03/13 04:22:29;;;;;;;7.50;1.70;;;;;;;;;;5112350;28;20065;-74
2023/03/13 04:24:54;;;;;;;18.20;2.20;;;;;;;;;;5113199;28;20062;-74
2023/03/13 04:27:20;;;;;;;6.63;1.40;;;;;;;;;;5112574;28;20027;-73
2023/03/13 04:29:45;;;;;;;8.60;1.25;;;;;;;;;;5111183;28;20028;-74
2023/03/13 04:32:10;;;;;;;13.95;1.42;;;;;;;;;;5111299;28;20027;-74
2023/03/13 04:34:36;;;;;;;5.65;1.50;;;;;;;;;;5113101;28;20043;-74
2023/03/13 04:37:01;;;;;;;6.88;1.70;;;;;;;;;;5113382;28;20039;-74
2023/03/13 04:39:27;;;;;;;12.70;2.47;;;;;;;;;;5111928;28;20165;-74
2023/03/13 04:41:53;;;;;;;8.93;1.88;;;;;;;;;;5102784;28;20031;-73
2023/03/13 04:44:19;;;;;;;13.18;1.80;;;;;;;;;;5112053;28;20120;-73
2023/03/13 04:46:47;;;;;;;9.80;1.40;;;;;;;;;;5108470;28;20487;-74
2023/03/13 04:49:13;;;;;;;14.70;2.13;;;;;;;;;;5109051;28;20039;-74
2023/03/13 04:51:39;;;;;;;10.52;1.65;;;;;;;;;;5112859;28;20414;-74
2023/03/13 04:54:05;;;;;;;10.05;1.17;;;;;;;;;;5113123;28;20467;-74
2023/03/13 04:56:30;;;;;;;10.15;1.38;;;;;;;;;;5112650;28;20027;-74
2023/03/13 04:58:56;;;;;;;13.10;2.00;;;;;;;;;;5112968;28;20046;-74
2023/03/13 05:01:21;;;;;;;11.80;1.73;;;;;;;;;;5114581;28;20030;-74
2023/03/13 05:03:47;;;;;;;13.70;2.30;;;;;;;;;;5116274;28;20479;-74
2023/03/13 05:06:12;;;;;;;9.93;2.05;;;;;;;;;;5115271;28;20046;-74
2023/03/13 05:08:38;;;;;;;12.02;1.85;;;;;;;;;;5115289;28;20118;-74
2023/03/13 05:11:03;;;;;;;12.60;2.08;;;;;;;;;;5116719;28;20112;-74
2023/03/13 05:13:29;;;;;;;15.40;2.90;;;;;;;;;;5116573;28;20039;-74
2023/03/13 05:15:55;;;;;;;14.02;2.70;;;;;;;;;;5096008;28;20038;-74
2023/03/13 05:18:20;;;;;;;14.75;3.17;;;;;;;;;;5116372;28;20031;-75
2023/03/13 05:20:45;;;;;;;16.63;2.45;;;;;;;;;;5116221;28;20081;-74
2023/03/13 05:23:11;;;;;;;14.13;2.00;;;;;;;;;;5116574;28;20034;-74
2023/03/13 05:25:36;;;;;;;20.13;2.78;;;;;;;;;;5116172;28;20039;-75
2023/03/13 05:28:02;;;;;;;15.55;2.53;;;;;;;;;;5116164;28;20046;-74
2023/03/13 05:30:28;;;;;;;14.02;3.20;;;;;;;;;;5116046;28;20494;-74
2023/03/13 05:32:53;;;;;;;21.23;3.00;;;;;;;;;;5116280;28;20035;-74
2023/03/13 05:35:18;;;;;;;19.73;3.97;;;;;;;;;;5115945;27;20045;-74
2023/03/13 05:37:47;;;;;;;23.15;2.58;;;;;;;;;;5116109;28;20035;-74
2023/03/13 05:40:13;;;;;;;24.30;3.83;;;;;;;;;;5100108;28;20032;-74
2023/03/13 05:42:38;;;;;;;16.33;2.80;;;;;;;;;;5114565;28;20517;-74
2023/03/13 05:45:04;;;;;;;12.93;2.33;;;;;;;;;;5114468;28;20036;-74
2023/03/13 05:47:30;;;;;;;20.00;2.97;;;;;;;;;;5095192;28;20043;-74
2023/03/13 05:49:55;;;;;;;18.90;2.72;;;;;;;;;;5114713;28;20047;-74
2023/03/13 05:52:21;;;;;;;20.88;3.13;;;;;;;;;;5104353;28;20019;-74
2023/03/13 05:54:46;;;;;;;20.95;3.10;;;;;;;;;;5115316;28;20074;-74
2023/03/13 05:57:11;;;;;;;19.20;3.67;;;;;;;;;;5115469;28;20088;-74
2023/03/13 05:59:37;;;;;;;29.15;4.45;;;;;;;;;;5114491;28;20035;-74
2023/03/13 06:02:02;;;;;;;12.88;2.40;;;;;;;;;;5115597;28;20114;-74
2023/03/13 06:04:28;;;;;;;20.15;3.00;;;;;;;;;;5115320;28;20050;-74
2023/03/13 06:06:53;;;;;;;14.52;3.03;;;;;;;;;;5115474;28;20032;-73
2023/03/13 06:09:19;;;;;;;17.30;3.15;;;;;;;;;;5113445;28;20042;-74
2023/03/13 06:11:44;;;;;;;24.27;2.55;;;;;;;;;;5115364;28;20070;-74
2023/03/13 06:14:10;;;;;;;19.05;3.08;;;;;;;;;;5115262;28;20085;-74
2023/03/13 06:16:35;;;;;;;17.95;3.67;;;;;;;;;;5115163;28;20046;-74
2023/03/13 06:19:01;;;;;;;31.90;3.45;;;;;;;;;;5115213;28;20043;-74
2023/03/13 06:21:26;;;;;;;19.92;3.25;;;;;;;;;;5115500;28;20031;-74
2023/03/13 06:23:53;;;;;;;17.60;3.15;;;;;;;;;;5115232;28;20031;-74
2023/03/13 06:26:19;;;;;;;19.95;3.30;;;;;;;;;;5115112;28;20035;-73
2023/03/13 06:28:44;;;;;;;24.58;3.55;;;;;;;;;;5115133;28;20043;-74
2023/03/13 06:31:10;;;;;;;22.77;2.95;;;;;;;;;;5115220;28;20047;-74
2023/03/13 06:33:36;;;;;;;29.75;4.15;;;;;;;;;;5114876;28;20085;-73
2023/03/13 06:36:02;;;;;;;21.48;3.30;;;;;;;;;;5114598;28;20386;-74
2023/03/13 06:38:28;;;;;;;13.77;2.50;;;;;;;;;;5113934;28;20092;-74
2023/03/13 06:40:54;;;;;;;15.13;2.20;;;;;;;;;;5113727;28;20034;-74
2023/03/13 06:43:20;;;;;;;24.45;3.30;;;;;;;;;;5107144;28;20032;-74
2023/03/13 06:45:46;;;;;;;17.65;2.58;;;;;;;;;;5114635;28;20118;-74
2023/03/13 06:48:11;;;;;;;17.92;2.92;;;;;;;;;;5112168;28;20115;-74
2023/03/13 06:50:38;;;;;;;24.25;3.53;;;;;;;;;;5113813;28;20544;-74
2023/03/13 06:53:03;;;;;;;25.92;3.78;;;;;;;;;;5112579;28;20046;-74
2023/03/13 06:55:29;;;;;;;19.40;3.10;;;;;;;;;;5111831;28;20040;-74
2023/03/13 06:57:54;;;;;;;22.83;3.63;;;;;;;;;;5112741;28;20028;-74
2023/03/13 07:00:20;;;;;;;16.98;3.42;;;;;;;;;;5114014;28;20360;-74
2023/03/13 07:02:46;;;;;;;29.77;3.83;;;;;;;;;;5112846;28;20130;-74
2023/03/13 07:05:13;;;;;;;17.45;2.95;;;;;;;;;;5113133;28;20467;-74
2023/03/13 07:07:40;;;;;;;22.90;3.05;;;;;;;;;;5112156;28;20039;-74
2023/03/13 07:10:06;;;;;;;18.15;3.92;;;;;;;;;;5114132;28;20047;-74
2023/03/13 07:12:31;;;;;;;29.17;3.42;;;;;;;;;;5096167;28;20080;-74
2023/03/13 07:14:56;;;;;;;26.95;3.53;;;;;;;;;;5112904;28;20040;-74
2023/03/13 07:17:22;;;;;;;38.85;4.75;;;;;;;;;;5113759;28;20046;-74
2023/03/13 07:19:47;;;;;;;23.95;2.90;;;;;;;;;;5113853;28;20039;-74
2023/03/13 07:22:13;;;;;;;21.77;4.00;;;;;;;;;;5114073;28;20031;-74
2023/03/13 07:24:38;;;;;;;30.77;3.72;;;;;;;;;;5113128;28;20043;-74
2023/03/13 07:27:03;;;;;;;24.00;3.78;;;;;;;;;;5114117;28;20027;-74
2023/03/13 07:29:29;;;;;;;18.77;2.72;;;;;;;;;;5113926;28;20068;-73
2023/03/13 07:31:54;;;;;;;19.67;2.58;;;;;;;;;;5113180;28;20118;-74
2023/03/13 07:34:20;;;;;;;32.58;3.35;;;;;;;;;;5113820;28;20138;-74
2023/03/13 07:36:45;;;;;;;17.30;3.58;;;;;;;;;;5113400;28;20044;-73
2023/03/13 07:39:11;;;;;;;24.33;4.07;;;;;;;;;;5113665;28;20044;-73
2023/03/13 07:41:36;;;;;;;24.55;3.95;;;;;;;;;;5112465;28;20138;-74
2023/03/13 07:44:01;;;;;;;24.98;4.30;;;;;;;;;;5112227;28;20036;-74
2023/03/13 07:46:27;;;;;;;26.10;4.55;;;;;;;;;;5113449;28;20042;-74
2023/03/13 07:48:54;;;;;;;35.67;5.05;;;;;;;;;;5113107;28;20110;-74
2023/03/13 07:51:21;;;;;;;30.65;3.63;;;;;;;;;;5112318;28;20031;-74
2023/03/13 07:53:47;;;;;;;29.88;3.75;;;;;;;;;;5113518;28;20487;-74
2023/03/13 07:56:18;;;;;;;27.20;4.18;;;;;;;;;;5113658;28;20035;-74
2023/03/13 07:58:43;;;;;;;25.85;3.42;;;;;;;;;;5109545;28;20135;-74
2023/03/13 08:01:13;;;;;;;31.35;3.40;;;;;;;;;;5109170;28;20468;-74
2023/03/13 08:03:39;;;;;;;24.00;4.60;;;;;;;;;;5112451;28;20039;-74
2023/03/13 08:06:07;;;;;;;27.00;4.85;;;;;;;;;;5112148;28;20125;-74
2023/03/13 08:08:33;;;;;;;29.48;5.28;;;;;;;;;;5112493;28;20031;-74
2023/03/13 08:11:04;;;;;;;24.10;3.05;;;;;;;;;;5113335;28;20395;-74
2023/03/13 08:13:30;;;;;;;37.40;4.50;;;;;;;;;;5112363;28;20478;-74
2023/03/13 08:16:09;;;;;;;28.08;4.40;;;;;;;;;;5111808;28;20387;-74
2023/03/13 08:18:35;;;;;;;25.05;4.03;;;;;;;;;;5113332;28;20096;-74
2023/03/13 08:21:05;;;;;;;34.45;4.60;;;;;;;;;;5113425;28;20070;-74
2023/03/13 08:23:31;;;;;;;30.88;4.57;;;;;;;;;;5113304;28;20027;-74
2023/03/13 08:26:02;;;;;;;36.63;4.93;;;;;;;;;;5112072;28;20035;-74
2023/03/13 08:28:27;;;;;;;26.40;3.60;;;;;;;;;;5113494;28;20039;-74
2023/03/13 08:30:52;;;;;;;34.30;4.20;;;;;;;;;;5113167;28;20478;-74
2023/03/13 08:33:18;;;;;;;32.88;4.00;;;;;;;;;;5113275;28;20040;-74
2023/03/13 08:35:43;;;;;;;29.58;3.65;;;;;;;;;;5113745;28;20078;-74
2023/03/13 08:38:09;;;;;;;17.92;3.60;;;;;;;;;;5117332;28;20036;-74
2023/03/13 08:40:34;;;;;;;32.28;4.68;;;;;;;;;;5117096;28;20032;-74
2023/03/13 08:42:59;;;;;;;30.50;5.40;;;;;;;;;;5116640;28;20100;-74
2023/03/13 08:45:25;;;;;;;33.58;4.95;;;;;;;;;;5116432;28;20024;-74
2023/03/13 08:47:53;;;;;;;28.17;4.28;;;;;;;;;;5108075;28;20531;-74
2023/03/13 08:50:19;;;;;;;32.42;4.05;;;;;;;;;;5117071;28;20046;-74
2023/03/13 08:52:45;;;;;;;32.50;4.45;;;;;;;;;;5115186;28;20028;-74
2023/03/13 08:55:10;;;;;;;29.35;4.85;;;;;;;;;;5116927;28;20043;-74
2023/03/13 08:57:35;;;;;;;18.50;3.30;;;;;;;;;;5115237;28;20123;-74
2023/03/13 09:00:01;;;;;;;34.25;5.30;;;;;;;;;;5116847;28;20031;-74
2023/03/13 09:02:26;;;;;;;36.03;5.13;;;;;;;;;;5116794;28;20055;-75
2023/03/13 09:04:52;;;;;;;42.25;4.50;;;;;;;;;;5115525;28;20066;-74
2023/03/13 09:07:17;;;;;;;18.70;4.07;;;;;;;;;;5116043;28;20456;-74
2023/03/13 09:09:43;;;;;;;33.50;4.53;;;;;;;;;;5116802;28;20116;-74
2023/03/13 09:12:09;;;;;;;30.23;5.03;;;;;;;;;;5116436;28;20054;-74
2023/03/13 09:14:34;;;;;;;26.23;3.83;;;;;;;;;;5115004;28;20038;-74
2023/03/13 09:17:00;;;;;;;30.38;4.53;;;;;;;;;;5113258;28;20031;-74
2023/03/13 09:19:25;;;;;;;30.17;5.28;;;;;;;;;;5115362;28;20114;-74
2023/03/13 09:21:51;;;;;;;48.67;6.20;;;;;;;;;;5116272;28;20032;-74
2023/03/13 09:24:16;;;;;;;33.85;5.32;;;;;;;;;;5114869;28;20035;-74
2023/03/13 09:26:42;;;;;;;26.42;4.00;;;;;;;;;;5116125;28;20035;-74
2023/03/13 09:29:08;;;;;;;29.48;3.97;;;;;;;;;;5114296;28;20031;-74
2023/03/13 09:31:34;;;;;;;17.75;4.30;;;;;;;;;;5115098;28;20035;-74
2023/03/13 09:34:00;;;;;;;32.63;4.47;;;;;;;;;;5116020;28;20050;-74
2023/03/13 09:36:26;;;;;;;19.48;4.07;;;;;;;;;;5116041;28;20051;-74
2023/03/13 09:38:53;;;;;;;29.77;4.75;;;;;;;;;;5116164;28;20126;-74
2023/03/13 09:41:20;;;;;;;21.23;3.92;;;;;;;;;;5113765;28;20082;-74
2023/03/13 09:43:48;;;;;;;30.30;3.90;;;;;;;;;;5114708;28;20112;-74
2023/03/13 09:46:23;;;;;;;48.42;6.90;;;;;;;;;;5115767;28;20119;-74
2023/03/13 09:48:51;;;;;;;22.02;3.60;;;;;;;;;;5110737;28;20138;-74
2023/03/13 09:51:27;;;;;;;31.42;4.38;;;;;;;;;;5113976;28;20039;-74
2023/03/13 09:54:21;;;;;;;24.10;4.70;;;;;;;;;;5111111;28;20040;-74
2023/03/13 09:56:52;;;;;;;29.70;4.00;;;;;;;;;;5111333;28;20106;-74
2023/03/13 09:59:21;;;;;;;28.48;4.70;;;;;;;;;;5114392;28;20047;-74
2023/03/13 10:01:47;;;;;;;32.97;5.55;;;;;;;;;;5115674;28;20100;-74
2023/03/13 10:04:18;;;;;;;25.67;4.43;;;;;;;;;;5114311;28;20035;-74
2023/03/13 10:06:46;;;;;;;16.77;3.45;;;;;;;;;;5115110;28;20074;-73
2023/03/13 10:09:20;;;;;;;23.10;4.65;;;;;;;;;;5112808;28;20042;-74
2023/03/13 10:11:57;;;;;;;22.58;4.45;;;;;;;;;;5115567;28;20050;-74
2023/03/13 10:14:41;;;;;;;23.00;3.38;;;;;;;;;;5114988;28;20043;-74
2023/03/13 10:17:25;;;;;;;27.75;4.07;;;;;;;;;;5113604;28;20040;-74
2023/03/13 10:19:57;;;;;;;37.15;5.57;;;;;;;;;;5103919;28;20084;-74
2023/03/13 10:22:26;;;;;;;26.35;4.53;;;;;;;;;;5111753;28;20040;-75
2023/03/13 10:24:54;;;;;;;28.45;4.72;;;;;;;;;;5114151;28;20119;-74
2023/03/13 10:27:20;;;;;;;25.63;5.28;;;;;;;;;;5113172;28;20368;-75
2023/03/13 10:29:45;;;;;;;28.85;5.53;;;;;;;;;;5114645;27;20037;-75
2023/03/13 10:32:13;;;;;;;33.97;5.95;;;;;;;;;;5114661;28;20136;-75
2023/03/13 10:34:55;;;;;;;30.05;4.72;;;;;;;;;;5113463;28;20390;-75
2023/03/13 10:37:32;;;;;;;34.90;5.43;;;;;;;;;;5108560;28;20042;-74
2023/03/13 10:40:23;;;;;;;30.88;5.15;;;;;;;;;;5113541;28;20126;-74
2023/03/13 10:42:51;;;;;;;35.38;6.68;;;;;;;;;;5113547;28;20071;-75
2023/03/13 10:45:21;;;;;;;35.45;5.22;;;;;;;;;;5114839;28;20047;-75
2023/03/13 10:47:54;;;;;;;25.42;4.72;;;;;;;;;;5099939;28;20372;-75
2023/03/13 10:50:23;;;;;;;23.88;4.60;;;;;;;;;;5113388;28;20043;-75
2023/03/13 10:52:49;;;;;;;27.08;5.38;;;;;;;;;;5113465;28;20092;-74
2023/03/13 10:55:20;;;;;;;31.20;5.13;;;;;;;;;;5114446;28;20055;-75
2023/03/13 10:57:58;;;;;;;31.25;6.38;;;;;;;;;;5113437;28;20035;-75
2023/03/13 11:00:27;;;;;;;26.45;3.92;;;;;;;;;;5112762;28;20038;-74
2023/03/13 11:02:53;;;;;;;24.75;5.05;;;;;;;;;;5113973;28;20450;-75
2023/03/13 11:05:22;;;;;;;20.13;3.45;;;;;;;;;;5113194;28;20123;-75
2023/03/13 11:07:48;;;;;;;26.95;4.43;;;;;;;;;;5114325;28;20027;-75
2023/03/13 11:10:31;;;;;;;24.05;3.95;;;;;;;;;;5114332;28;20031;-75
2023/03/13 11:12:57;;;;;;;21.55;4.05;;;;;;;;;;5114204;28;20031;-75
2023/03/13 11:15:35;;;;;;;20.02;3.78;;;;;;;;;;5112998;28;20044;-74
2023/03/13 11:18:15;;;;;;;26.65;5.13;;;;;;;;;;5079759;28;20054;-75
2023/03/13 11:20:43;;;;;;;19.48;3.83;;;;;;;;;;5106267;28;20463;-74
2023/03/13 11:23:19;;;;;;;31.38;4.80;;;;;;;;;;5112702;28;20491;-75
2023/03/13 11:26:11;;;;;;;29.90;6.45;;;;;;;;;;5112771;28;20046;-75
2023/03/13 11:28:54;;;;;;;29.67;5.05;;;;;;;;;;5110122;28;20057;-75
2023/03/13 11:31:29;;;;;;;25.23;4.68;;;;;;;;;;5112662;28;20067;-75
2023/03/13 11:34:29;;;;;;;30.10;4.88;;;;;;;;;;5111576;28;20364;-75
2023/03/13 11:37:02;;;;;;;33.17;5.07;;;;;;;;;;5092361;28;20059;-75
2023/03/13 11:39:46;;;;;;;29.10;4.38;;;;;;;;;;5112735;28;20031;-75
2023/03/13 11:42:32;;;;;;;28.02;4.95;;;;;;;;;;5113433;28;20502;-75
2023/03/13 11:45:35;;;;;;;29.98;4.43;;;;;;;;;;5113744;28;20038;-75
2023/03/13 11:48:13;;;;;;;21.70;5.60;;;;;;;;;;5110851;28;20432;-75
2023/03/13 11:50:59;;;;;;;29.83;4.30;;;;;;;;;;5112911;27;20032;-75
2023/03/13 11:53:35;;;;;;;23.00;3.85;;;;;;;;;;5111805;28;20065;-75
2023/03/13 11:56:06;;;;;;;24.98;4.43;;;;;;;;;;5113785;28;20027;-75
2023/03/13 11:58:55;;;;;;;24.02;4.20;;;;;;;;;;5111952;28;20065;-75
2023/03/13 12:01:25;;;;;;;26.05;4.50;;;;;;;;;;5102353;28;20475;-75
2023/03/13 12:03:55;;;;;;;26.23;3.90;;;;;;;;;;5112029;28;20036;-75
2023/03/13 12:06:31;;;;;;;30.65;3.63;;;;;;;;;;5112050;28;20463;-75
2023/03/13 12:09:27;;;;;;;14.70;3.50;;;;;;;;;;5102298;28;20089;-75
2023/03/13 12:12:04;;;;;;;12.80;3.45;;;;;;;;;;5103622;28;20063;-75
2023/03/13 12:14:32;;;;;;;19.23;3.72;;;;;;;;;;5117686;28;20096;-75
2023/03/13 12:17:05;;;;;;;24.30;3.88;;;;;;;;;;5117262;28;20502;-75
2023/03/13 12:19:52;;;;;;;15.57;2.90;;;;;;;;;;5113974;28;20035;-75
2023/03/13 12:22:23;;;;;;;19.95;3.25;;;;;;;;;;5116466;28;20389;-75
2023/03/13 12:24:54;;;;;;;19.38;3.53;;;;;;;;;;5116322;28;20139;-75
2023/03/13 12:27:31;;;;;;;25.95;4.22;;;;;;;;;;5116297;28;20100;-76
2023/03/13 12:30:21;;;;;;;19.73;3.72;;;;;;;;;;5097196;28;20039;-75
2023/03/13 12:33:09;;;;;;;27.20;4.15;;;;;;;;;;5116064;28;20076;-75
2023/03/13 12:35:35;;;;;;;26.02;3.88;;;;;;;;;;5117180;28;20065;-75
2023/03/13 12:38:29;;;;;;;19.02;3.13;;;;;;;;;;5116005;28;20023;-76
2023/03/13 12:41:16;;;;;;;19.90;4.63;;;;;;;;;;5110939;28;20444;-76
2023/03/13 12:43:43;;;;;;;21.45;3.70;;;;;;;;;;5115338;28;20066;-75
2023/03/13 12:46:29;;;;;;;19.95;3.58;;;;;;;;;;5115656;28;20395;-75
2023/03/13 12:49:27;;;;;;;17.15;3.90;;;;;;;;;;5113616;28;20036;-75
2023/03/13 12:52:29;;;;;;;17.45;3.72;;;;;;;;;;5111638;28;20441;-75
2023/03/13 12:54:57;;;;;;;31.35;4.07;;;;;;;;;;5115883;28;20511;-75
2023/03/13 12:57:40;;;;;;;16.38;3.10;;;;;;;;;;5116928;28;20175;-75
2023/03/13 13:00:27;;;;;;;17.83;3.92;;;;;;;;;;5114760;28;20035;-75
2023/03/13 13:03:30;;;;;;;22.63;3.65;;;;;;;;;;5115560;28;20047;-76
2023/03/13 13:06:09;;;;;;;20.02;3.13;;;;;;;;;;5113912;28;20460;-75
2023/03/13 13:08:48;;;;;;;21.75;3.47;;;;;;;;;;5116610;28;20036;-75
2023/03/13 13:11:35;;;;;;;22.45;4.20;;;;;;;;;;5104988;28;20027;-75
2023/03/13 13:14:16;;;;;;;17.98;4.05;;;;;;;;;;5115737;28;20111;-76
2023/03/13 13:16:55;;;;;;;20.20;3.78;;;;;;;;;;5115496;28;20089;-75
2023/03/13 13:19:23;;;;;;;16.40;2.90;;;;;;;;;;5115319;28;20039;-75
2023/03/13 13:22:27;;;;;;;21.73;4.35;;;;;;;;;;5115578;28;20440;-76
2023/03/13 13:24:55;;;;;;;15.32;2.67;;;;;;;;;;5081918;28;20058;-75
2023/03/13 13:27:35;;;;;;;19.95;3.65;;;;;;;;;;5115238;28;20089;-75
2023/03/13 13:30:23;;;;;;;21.10;3.40;;;;;;;;;;5100477;28;20143;-76
2023/03/13 13:32:49;;;;;;;20.67;3.85;;;;;;;;;;5115900;28;20054;-75
2023/03/13 13:35:29;;;;;;;10.32;2.67;;;;;;;;;;5114745;28;20035;-76
2023/03/13 13:38:18;;;;;;;15.40;2.58;;;;;;;;;;5114316;28;20398;-75
2023/03/13 13:41:09;;;;;;;18.70;2.47;;;;;;;;;;5105942;28;20047;-75
2023/03/13 13:43:38;;;;;;;14.38;2.95;;;;;;;;;;5115590;28;20490;-75
2023/03/13 13:46:32;;;;;;;16.30;2.60;;;;;;;;;;5114663;28;20031;-75
2023/03/13 13:49:04;;;;;;;9.18;1.95;;;;;;;;;;5092375;28;20040;-75
2023/03/13 13:51:30;;;;;;;14.27;2.55;;;;;;;;;;5095585;28;20106;-75
2023/03/13 13:54:03;;;;;;;17.65;3.45;;;;;;;;;;5110701;28;20048;-75
2023/03/13 13:56:28;;;;;;;23.15;3.00;;;;;;;;;;5114473;28;20047;-75
2023/03/13 13:59:22;;;;;;;16.52;2.85;;;;;;;;;;5113067;28;20138;-75
2023/03/13 14:01:49;;;;;;;;;;;;;;;;;;5097823;28;20483;-75
2023/03/13 14:04:36;;;;;;;16.67;2.85;;;;;;;;;;5115574;28;19919;-75
2023/03/13 14:07:03;;;;;;;19.77;2.78;;;;;;;;;;5074244;28;20043;-75
2023/03/13 14:09:46;;;;;;;17.80;3.28;;;;;;;;;;5113931;28;20471;-75
2023/03/13 14:12:25;;;;;;;19.98;3.00;;;;;;;;;;5110585;28;20042;-75
2023/03/13 14:15:26;;;;;;;15.85;2.50;;;;;;;;;;5115292;28;20126;-75
2023/03/13 14:18:13;;;;;;;12.15;3.03;;;;;;;;;;5115414;28;20123;-75
2023/03/13 14:20:52;;;;;;;17.73;2.70;;;;;;;;;;5107623;28;20106;-75
2023/03/13 14:23:38;;;;;;;14.45;2.53;;;;;;;;;;5102246;28;20032;-75
2023/03/13 14:26:17;;;;;;;16.65;2.80;;;;;;;;;;5115238;28;20031;-75
2023/03/13 14:28:46;;;;;;;15.32;3.00;;;;;;;;;;5114979;28;20048;-75
2023/03/13 14:31:24;;;;;;;19.77;2.70;;;;;;;;;;5107836;28;20040;-75
2023/03/13 14:33:50;;;;;;;19.55;4.20;;;;;;;;;;5112879;28;20035;-75
2023/03/13 14:36:15;;;;;;;22.67;4.38;;;;;;;;;;5114926;28;20036;-74
2023/03/13 14:38:50;;;;;;;15.98;3.03;;;;;;;;;;5113947;28;20051;-74
2023/03/13 14:41:36;;;;;;;25.38;3.30;;;;;;;;;;5113540;28;20131;-75
2023/03/13 14:44:12;;;;;;;24.20;3.55;;;;;;;;;;5113512;28;20479;-75
2023/03/13 14:46:39;;;;;;;16.88;3.05;;;;;;;;;;5112098;28;20036;-75
2023/03/13 14:49:15;;;;;;;19.63;3.20;;;;;;;;;;5113625;28;20039;-76
2023/03/13 14:51:41;;;;;;;17.48;3.63;;;;;;;;;;5110279;28;20097;-75
2023/03/13 14:54:24;;;;;;;19.88;3.50;;;;;;;;;;5114197;28;20051;-75